createdAt,value
2023-03-03T00:01:17.704Z,23.67
2023-03-03T00:03:44.678Z,20.92
2023-03-03T00:06:13.986Z,15.88
2023-03-03T00:08:41.328Z,19.10
2023-03-03T00:11:09.443Z,21.45
2023-03-03T00:13:57.676Z,16.52
2023-03-03T00:16:39.838Z,22.05
2023-03-03T00:19:15.639Z,23.13
2023-03-03T00:21:46.858Z,22.27
2023-03-03T00:24:40.397Z,17.83
2023-03-03T00:27:23.299Z,18.90
2023-03-03T00:29:58.272Z,19.63
2023-03-03T00:32:38.538Z,19.15
2023-03-03T00:35:30.178Z,21.17
2023-03-03T00:38:10.080Z,21.92
2023-03-03T00:40:39.455Z,19.50
2023-03-03T00:43:29.039Z,18.27
2023-03-03T00:45:57.390Z,21.08
2023-03-03T00:48:31.328Z,18.65
2023-03-03T00:51:08.370Z,22.70
2023-03-03T00:53:35.303Z,17.92
2023-03-03T00:56:02.110Z,27.50
2023-03-03T00:58:29.641Z,21.05
2023-03-03T01:00:56.858Z,20.73
2023-03-03T01:03:25.853Z,18.42
2023-03-03T01:05:53.525Z,25.25
2023-03-03T01:08:22.185Z,22.40
2023-03-03T01:10:56.102Z,22.02
2023-03-03T01:13:27.028Z,22.23
2023-03-03T01:15:54.482Z,19.13
2023-03-03T01:18:21.781Z,19.00
2023-03-03T01:20:48.592Z,19.52
2023-03-03T01:23:15.445Z,21.83
2023-03-03T01:25:42.358Z,15.38
2023-03-03T01:28:09.509Z,22.23
2023-03-03T01:30:36.865Z,21.02
2023-03-03T01:33:04.175Z,23.67
2023-03-03T01:35:31.285Z,27.20
2023-03-03T01:37:58.937Z,19.60
2023-03-03T01:40:29.266Z,26.88
2023-03-03T01:42:56.296Z,27.88
2023-03-03T01:45:31.755Z,21.92
2023-03-03T01:48:00.137Z,26.15
2023-03-03T01:50:39.221Z,27.50
2023-03-03T01:53:22.114Z,28.17
2023-03-03T01:55:51.747Z,23.05
2023-03-03T01:58:45.058Z,16.90
2023-03-03T02:01:15.741Z,13.10
2023-03-03T02:03:44.119Z,21.95
2023-03-03T02:06:15.561Z,17.20
2023-03-03T02:09:05.049Z,14.32
2023-03-03T02:11:34.964Z,20.17
2023-03-03T02:14:01.846Z,19.20
2023-03-03T02:16:29.060Z,21.17
2023-03-03T02:18:55.895Z,19.10
2023-03-03T02:21:27.714Z,21.30
2023-03-03T02:23:57.605Z,27.42
2023-03-03T02:26:29.910Z,24.65
2023-03-03T02:28:56.802Z,20.88
2023-03-03T02:31:26.047Z,24.60
2023-03-03T02:33:54.256Z,20.42
2023-03-03T02:36:28.508Z,22.98
2023-03-03T02:41:30.929Z,22.05
2023-03-03T02:44:02.420Z,27.52
2023-03-03T02:46:37.056Z,20.17
2023-03-03T02:49:05.681Z,24.98
2023-03-03T02:51:32.954Z,18.23
2023-03-03T02:54:00.217Z,24.45
2023-03-03T02:56:27.609Z,18.70
2023-03-03T02:58:54.619Z,20.77
2023-03-03T03:01:22.105Z,24.23
2023-03-03T03:03:49.112Z,18.67
2023-03-03T03:06:15.959Z,20.45
2023-03-03T03:08:42.974Z,23.33
2023-03-03T03:11:09.860Z,28.48
2023-03-03T03:13:36.948Z,20.30
2023-03-03T03:16:04.044Z,20.60
2023-03-03T03:18:30.848Z,15.95
2023-03-03T03:20:57.702Z,12.82
2023-03-03T03:23:24.541Z,15.35
2023-03-03T03:25:51.440Z,23.00
2023-03-03T03:28:19.115Z,21.02
2023-03-03T03:30:46.045Z,15.48
2023-03-03T03:33:13.137Z,16.45
2023-03-03T03:35:45.442Z,14.50
2023-03-03T03:38:13.056Z,13.30
2023-03-03T03:40:40.363Z,14.68
2023-03-03T03:43:07.220Z,15.88
2023-03-03T03:45:34.283Z,15.43
2023-03-03T03:48:01.186Z,15.50
2023-03-03T03:50:28.158Z,12.98
2023-03-03T03:52:55.110Z,14.05
2023-03-03T03:55:22.804Z,17.35
2023-03-03T03:57:49.675Z,14.32
2023-03-03T04:00:17.090Z,13.50
2023-03-03T04:02:44.112Z,12.95
2023-03-03T04:05:11.147Z,12.40
2023-03-03T04:07:38.000Z,10.98
2023-03-03T04:10:05.779Z,10.50
2023-03-03T04:12:38.648Z,11.80
2023-03-03T04:15:11.638Z,9.00
2023-03-03T04:17:39.044Z,10.18
2023-03-03T04:20:07.080Z,9.73
2023-03-03T04:22:35.956Z,9.90
2023-03-03T04:25:05.592Z,10.60
2023-03-03T04:27:33.430Z,15.10
2023-03-03T04:30:00.391Z,9.38
2023-03-03T04:32:27.397Z,11.15
2023-03-03T04:35:05.806Z,9.20
2023-03-03T04:37:34.437Z,10.23
2023-03-03T04:40:01.461Z,8.63
2023-03-03T04:42:28.887Z,9.43
2023-03-03T04:44:55.745Z,11.82
2023-03-03T04:47:23.229Z,8.82
2023-03-03T04:49:50.152Z,7.75
2023-03-03T04:52:17.060Z,19.80
2023-03-03T04:54:44.018Z,10.63
2023-03-03T04:57:10.850Z,8.45
2023-03-03T04:59:37.733Z,8.13
2023-03-03T05:02:07.213Z,11.98
2023-03-03T05:04:34.439Z,10.73
2023-03-03T05:07:01.366Z,7.57
2023-03-03T05:09:28.231Z,9.60
2023-03-03T05:11:55.210Z,7.75
2023-03-03T05:14:22.413Z,13.40
2023-03-03T05:16:49.286Z,9.55
2023-03-03T05:19:16.543Z,10.32
2023-03-03T05:21:43.438Z,9.88
2023-03-03T05:24:12.020Z,10.88
2023-03-03T05:26:39.413Z,11.68
2023-03-03T05:29:06.994Z,9.65
2023-03-03T05:31:33.914Z,10.45
2023-03-03T05:34:00.820Z,9.52
2023-03-03T05:36:27.850Z,10.38
2023-03-03T05:38:54.653Z,10.90
2023-03-03T05:41:21.898Z,10.95
2023-03-03T05:43:48.866Z,9.52
2023-03-03T05:46:16.031Z,11.80
2023-03-03T05:48:43.164Z,8.35
2023-03-03T05:51:10.040Z,11.82
2023-03-03T05:53:36.986Z,9.88
2023-03-03T05:56:04.248Z,11.38
2023-03-03T05:58:31.186Z,11.75
2023-03-03T06:00:58.020Z,11.02
2023-03-03T06:03:24.933Z,12.57
2023-03-03T06:05:52.066Z,14.15
2023-03-03T06:08:19.088Z,12.27
2023-03-03T06:10:46.022Z,15.52
2023-03-03T06:13:12.990Z,13.60
2023-03-03T06:15:39.860Z,10.70
2023-03-03T06:18:06.936Z,9.65
2023-03-03T06:20:35.491Z,10.93
2023-03-03T06:23:02.718Z,12.30
2023-03-03T06:25:29.575Z,10.88
2023-03-03T06:27:56.619Z,12.10
2023-03-03T06:30:23.616Z,14.82
2023-03-03T06:32:50.457Z,11.27
2023-03-03T06:35:18.379Z,14.05
2023-03-03T06:37:45.240Z,19.05
2023-03-03T06:40:12.609Z,12.07
2023-03-03T06:42:39.420Z,13.20
2023-03-03T06:45:06.638Z,9.90
2023-03-03T06:47:34.042Z,13.82
2023-03-03T06:50:00.838Z,15.95
2023-03-03T06:52:28.012Z,13.82
2023-03-03T06:55:01.020Z,13.18
2023-03-03T06:57:29.068Z,13.18
2023-03-03T06:59:59.523Z,11.75
2023-03-03T07:02:26.347Z,12.30
2023-03-03T07:04:56.595Z,11.98
2023-03-03T07:07:25.452Z,13.55
2023-03-03T07:09:55.972Z,9.63
2023-03-03T07:12:26.499Z,10.05
2023-03-03T07:15:26.205Z,9.18
2023-03-03T07:17:58.327Z,11.35
2023-03-03T07:20:39.402Z,13.63
2023-03-03T07:23:42.902Z,10.25
2023-03-03T07:26:13.056Z,13.70
2023-03-03T07:28:45.257Z,15.65
2023-03-03T07:31:36.043Z,10.60
2023-03-03T07:34:15.561Z,11.07
2023-03-03T07:36:42.493Z,17.00
2023-03-03T07:39:29.309Z,15.32
2023-03-03T07:42:12.592Z,12.45
2023-03-03T07:44:41.407Z,14.60
2023-03-03T07:47:28.395Z,11.75
2023-03-03T07:49:57.898Z,13.52
2023-03-03T07:52:27.430Z,16.35
2023-03-03T07:54:57.886Z,18.08
2023-03-03T07:57:39.794Z,14.13
2023-03-03T08:00:19.021Z,13.05
2023-03-03T08:02:53.772Z,18.73
2023-03-03T08:05:28.437Z,16.10
2023-03-03T08:08:10.680Z,17.20
2023-03-03T08:10:46.086Z,12.80
2023-03-03T08:13:24.344Z,10.07
2023-03-03T08:16:04.773Z,13.30
2023-03-03T08:18:53.404Z,15.75
2023-03-03T08:21:26.512Z,12.32
2023-03-03T08:23:54.145Z,13.23
2023-03-03T08:26:22.367Z,9.48
2023-03-03T08:28:49.556Z,10.60
2023-03-03T08:31:27.982Z,11.88
2023-03-03T08:34:04.701Z,12.80
2023-03-03T08:36:34.281Z,11.45
2023-03-03T08:39:03.156Z,12.02
2023-03-03T08:41:30.204Z,10.55
2023-03-03T08:43:57.006Z,11.70
2023-03-03T08:46:24.001Z,9.82
2023-03-03T08:48:51.460Z,14.48
2023-03-03T08:51:18.340Z,10.57
2023-03-03T08:53:45.175Z,15.40
2023-03-03T08:56:12.052Z,16.30
2023-03-03T08:58:45.213Z,14.52
2023-03-03T09:01:17.079Z,11.43
2023-03-03T09:03:44.624Z,13.15
2023-03-03T09:06:11.888Z,15.27
2023-03-03T09:08:38.784Z,12.13
2023-03-03T09:11:19.672Z,13.60
2023-03-03T09:13:46.507Z,16.65
2023-03-03T09:16:15.367Z,16.13
2023-03-03T09:18:42.852Z,13.30
2023-03-03T09:21:32.869Z,10.20
2023-03-03T09:24:00.802Z,11.38
2023-03-03T09:26:43.270Z,18.25
2023-03-03T09:29:25.346Z,9.85
2023-03-03T09:31:58.923Z,10.82
2023-03-03T09:34:43.312Z,10.48
2023-03-03T09:37:23.728Z,12.48
2023-03-03T09:39:55.958Z,7.75
2023-03-03T09:42:52.628Z,8.55
2023-03-03T09:45:34.860Z,7.00
2023-03-03T09:48:23.020Z,7.32
2023-03-03T09:50:59.557Z,12.93
2023-03-03T09:53:58.489Z,10.40
2023-03-03T09:56:30.353Z,7.05
2023-03-03T09:59:08.942Z,5.25
2023-03-03T10:01:54.502Z,4.78
2023-03-03T10:04:24.188Z,4.80
2023-03-03T10:06:54.126Z,6.43
2023-03-03T10:09:36.321Z,7.78
2023-03-03T10:12:22.574Z,5.35
2023-03-03T10:15:16.557Z,5.65
2023-03-03T10:17:59.160Z,3.90
2023-03-03T10:20:49.624Z,4.40
2023-03-03T10:23:24.171Z,5.15
2023-03-03T10:26:03.797Z,5.80
2023-03-03T10:28:48.091Z,4.45
2023-03-03T10:31:39.281Z,7.93
2023-03-03T10:34:31.350Z,2.95
2023-03-03T10:37:24.479Z,6.70
2023-03-03T10:40:14.205Z,6.43
2023-03-03T10:43:13.750Z,5.57
2023-03-03T10:46:35.026Z,5.30
2023-03-03T10:49:16.898Z,12.27
2023-03-03T10:51:49.522Z,6.35
2023-03-03T10:54:58.105Z,4.22
2023-03-03T10:57:40.954Z,6.78
2023-03-03T11:00:31.595Z,7.63
2023-03-03T11:03:35.126Z,2.70
2023-03-03T11:06:12.909Z,3.63
2023-03-03T11:08:57.600Z,8.10
2023-03-03T11:14:13.513Z,5.07
2023-03-03T11:16:55.194Z,10.00
2023-03-03T11:19:40.606Z,3.83
2023-03-03T11:22:13.314Z,6.50
2023-03-03T11:24:51.158Z,7.20
2023-03-03T11:27:52.081Z,7.50
2023-03-03T11:30:45.240Z,9.85
2023-03-03T11:33:22.287Z,9.40
2023-03-03T11:36:11.487Z,4.55
2023-03-03T11:39:00.039Z,10.65
2023-03-03T11:41:34.716Z,4.55
2023-03-03T11:44:14.045Z,4.38
2023-03-03T11:46:52.924Z,5.47
2023-03-03T11:49:27.205Z,5.35
2023-03-03T11:52:18.660Z,5.68
2023-03-03T11:54:56.990Z,3.78
2023-03-03T11:57:27.485Z,7.20
2023-03-03T12:00:05.589Z,8.88
2023-03-03T12:02:53.903Z,5.35
2023-03-03T12:05:36.245Z,7.60
2023-03-03T12:08:41.756Z,5.10
2023-03-03T12:14:06.035Z,2.70
2023-03-03T12:16:54.205Z,6.18
2023-03-03T12:19:36.588Z,3.75
2023-03-03T12:22:35.511Z,4.20
2023-03-03T12:25:06.879Z,9.93
2023-03-03T12:28:07.124Z,2.80
2023-03-03T12:30:54.974Z,5.93
2023-03-03T12:34:00.929Z,8.18
2023-03-03T12:36:45.249Z,4.82
2023-03-03T12:39:56.691Z,3.03
2023-03-03T12:42:35.794Z,3.33
2023-03-03T12:45:11.850Z,3.15
2023-03-03T12:47:58.330Z,4.70
2023-03-03T12:50:56.123Z,2.47
2023-03-03T12:53:49.688Z,2.58
2023-03-03T12:56:29.628Z,1.88
2023-03-03T12:59:09.167Z,4.32
2023-03-03T13:02:03.470Z,0.82
2023-03-03T13:04:57.660Z,1.60
2023-03-03T13:07:38.253Z,1.50
2023-03-03T13:10:35.684Z,2.08
2023-03-03T13:13:15.930Z,1.15
2023-03-03T13:15:59.588Z,2.20
2023-03-03T13:18:53.620Z,2.67
2023-03-03T13:21:36.592Z,1.23
2023-03-03T13:24:31.852Z,3.50
2023-03-03T13:27:07.270Z,1.05
2023-03-03T13:29:40.473Z,4.15
2023-03-03T13:32:57.030Z,1.15
2023-03-03T13:35:49.975Z,1.70
2023-03-03T13:38:29.973Z,2.38
2023-03-03T13:41:04.093Z,2.95
2023-03-03T13:43:38.158Z,0.47
2023-03-03T13:46:35.602Z,2.40
2023-03-03T13:49:38.175Z,2.50
2023-03-03T13:52:09.975Z,0.40
2023-03-03T13:54:36.784Z,1.00
2023-03-03T13:57:38.455Z,4.25
2023-03-03T14:00:29.555Z,2.50
2023-03-03T14:03:08.563Z,3.08
2023-03-03T14:05:41.519Z,0.65
2023-03-03T14:08:26.058Z,0.65
2023-03-03T14:11:39.626Z,3.90
2023-03-03T14:14:15.163Z,0.20
2023-03-03T14:17:12.767Z,2.40
2023-03-03T14:20:11.511Z,1.48
2023-03-03T14:23:03.610Z,1.40
2023-03-03T14:25:55.448Z,1.23
2023-03-03T14:28:25.023Z,6.03
2023-03-03T14:30:55.962Z,1.63
2023-03-03T14:33:29.480Z,1.85
2023-03-03T14:35:59.512Z,0.40
2023-03-03T14:38:32.485Z,1.25
2023-03-03T14:41:12.013Z,1.13
2023-03-03T14:43:40.751Z,1.13
2023-03-03T14:46:33.701Z,2.50
2023-03-03T14:49:15.719Z,1.73
2023-03-03T14:51:48.418Z,0.28
2023-03-03T14:54:22.658Z,3.25
2023-03-03T14:57:15.912Z,1.55
2023-03-03T15:00:24.141Z,2.05
2023-03-03T15:03:19.783Z,1.38
2023-03-03T15:05:51.591Z,1.30
2023-03-03T15:08:31.055Z,0.80
2023-03-03T15:11:14.254Z,2.80
2023-03-03T15:13:41.272Z,0.47
2023-03-03T15:16:31.376Z,0.88
2023-03-03T15:19:00.486Z,0.30
2023-03-03T15:21:34.322Z,1.67
2023-03-03T15:24:21.617Z,1.15
2023-03-03T15:26:54.443Z,3.83
2023-03-03T15:29:30.709Z,2.28
2023-03-03T15:32:19.457Z,1.05
2023-03-03T15:35:00.040Z,3.70
2023-03-03T15:37:42.437Z,0.50
2023-03-03T15:40:26.961Z,6.65
2023-03-03T15:43:05.819Z,2.33
2023-03-03T15:45:40.542Z,1.05
2023-03-03T15:48:38.278Z,2.10
2023-03-03T15:51:50.794Z,2.58
2023-03-03T15:54:43.632Z,3.40
2023-03-03T15:57:45.582Z,1.05
2023-03-03T16:00:43.693Z,6.72
2023-03-03T16:03:45.655Z,4.10
2023-03-03T16:06:44.361Z,6.35
2023-03-03T16:09:13.973Z,4.13
2023-03-03T16:11:54.470Z,5.32
2023-03-03T16:14:27.454Z,11.40
2023-03-03T16:17:22.486Z,3.20
2023-03-03T16:22:38.710Z,10.05
2023-03-03T16:25:23.620Z,4.78
2023-03-03T16:28:03.594Z,10.05
2023-03-03T16:30:36.917Z,5.70
2023-03-03T16:33:44.069Z,6.22
2023-03-03T16:36:10.996Z,4.30
2023-03-03T16:38:41.933Z,8.55
2023-03-03T16:41:34.704Z,6.55
2023-03-03T16:44:22.945Z,5.43
2023-03-03T16:46:50.643Z,8.57
2023-03-03T16:49:24.644Z,4.20
2023-03-03T16:52:10.562Z,14.57
2023-03-03T16:54:54.259Z,7.53
2023-03-03T16:57:53.113Z,6.50
2023-03-03T17:00:44.295Z,6.38
2023-03-03T17:03:42.786Z,21.02
2023-03-03T17:06:29.488Z,11.57
2023-03-03T17:09:30.089Z,14.88
2023-03-03T17:12:13.959Z,9.25
2023-03-03T17:14:57.682Z,7.35
2023-03-03T17:17:47.215Z,13.88
2023-03-03T17:20:35.267Z,9.50
2023-03-03T17:23:21.554Z,6.15
2023-03-03T17:26:18.555Z,6.63
2023-03-03T17:29:12.738Z,12.43
2023-03-03T17:31:49.211Z,18.83
2023-03-03T17:34:31.453Z,12.80
2023-03-03T17:37:07.049Z,8.82
2023-03-03T17:39:40.106Z,5.72
2023-03-03T17:42:09.761Z,24.27
2023-03-03T17:45:01.243Z,9.02
2023-03-03T17:47:43.645Z,16.65
2023-03-03T17:50:33.803Z,9.27
2023-03-03T17:53:34.853Z,8.20
2023-03-03T17:56:10.612Z,6.10
2023-03-03T17:59:15.153Z,4.47
2023-03-03T18:01:57.305Z,11.50
2023-03-03T18:04:56.571Z,6.50
2023-03-03T18:08:20.760Z,5.57
2023-03-03T18:14:43.099Z,12.40
2023-03-03T18:17:35.424Z,12.18
2023-03-03T18:20:27.581Z,9.20
2023-03-03T18:22:55.014Z,13.27
2023-03-03T18:25:22.954Z,14.95
2023-03-03T18:28:04.026Z,13.52
2023-03-03T18:30:49.882Z,7.43
2023-03-03T18:33:36.636Z,15.70
2023-03-03T18:36:28.602Z,8.70
2023-03-03T18:38:58.084Z,7.82
2023-03-03T18:41:30.598Z,6.90
2023-03-03T18:44:24.280Z,11.10
2023-03-03T18:46:52.845Z,11.60
2023-03-03T18:49:52.594Z,7.18
2023-03-03T18:52:28.990Z,10.93
2023-03-03T18:55:10.887Z,15.52
2023-03-03T18:57:38.830Z,5.13
2023-03-03T19:00:21.591Z,12.52
2023-03-03T19:02:57.101Z,10.75
2023-03-03T19:05:34.428Z,10.35
2023-03-03T19:08:16.196Z,11.65
2023-03-03T19:10:56.408Z,9.07
2023-03-03T19:13:32.249Z,16.70
2023-03-03T19:16:06.894Z,5.57
2023-03-03T19:18:55.483Z,10.73
2023-03-03T19:21:34.105Z,14.02
2023-03-03T19:24:05.044Z,11.90
2023-03-03T19:26:40.133Z,10.48
2023-03-03T19:29:32.013Z,10.10
2023-03-03T19:32:19.099Z,11.10
2023-03-03T19:34:57.746Z,10.00
2023-03-03T19:37:55.547Z,13.25
2023-03-03T19:40:43.377Z,11.00
2023-03-03T19:43:44.298Z,15.13
2023-03-03T19:46:26.362Z,8.77
2023-03-03T19:49:08.351Z,11.40
2023-03-03T19:51:56.604Z,15.27
2023-03-03T19:54:26.546Z,6.25
2023-03-03T19:56:55.944Z,11.65
2023-03-03T19:59:28.545Z,13.30
2023-03-03T20:02:13.572Z,7.82
2023-03-03T20:04:56.022Z,13.05
2023-03-03T20:08:01.845Z,13.57
2023-03-03T20:10:36.857Z,18.63
2023-03-03T20:13:09.886Z,16.65
2023-03-03T20:16:14.919Z,20.17
2023-03-03T20:19:26.180Z,24.13
2023-03-03T20:22:25.417Z,13.52
2023-03-03T20:25:08.979Z,8.38
2023-03-03T20:28:01.841Z,9.15
2023-03-03T20:30:43.654Z,19.25
2023-03-03T20:33:39.663Z,23.40
2023-03-03T20:36:09.413Z,14.35
2023-03-03T20:39:04.629Z,19.75
2023-03-03T20:42:08.020Z,8.93
2023-03-03T20:44:34.874Z,11.98
2023-03-03T20:47:15.667Z,15.43
2023-03-03T20:50:07.736Z,20.17
2023-03-03T20:53:14.234Z,18.55
2023-03-03T20:55:59.115Z,17.50
2023-03-03T20:59:09.537Z,12.07
2023-03-03T21:01:49.831Z,15.27
2023-03-03T21:04:23.573Z,20.65
2023-03-03T21:06:50.582Z,10.55
2023-03-03T21:09:36.383Z,7.93
2023-03-03T21:12:28.922Z,14.27
2023-03-03T21:15:04.345Z,7.53
2023-03-03T21:17:31.735Z,5.57
2023-03-03T21:20:19.623Z,22.55
2023-03-03T21:22:46.677Z,14.40
2023-03-03T21:25:42.658Z,4.90
2023-03-03T21:28:36.058Z,11.52
2023-03-03T21:31:17.468Z,3.25
2023-03-03T21:33:56.624Z,11.35
2023-03-03T21:36:43.835Z,7.78
2023-03-03T21:39:34.072Z,9.60
2023-03-03T21:42:02.590Z,7.65
2023-03-03T21:44:48.942Z,11.88
2023-03-03T21:47:18.639Z,10.85
2023-03-03T21:49:47.472Z,8.07
2023-03-03T21:52:16.518Z,9.73
2023-03-03T21:54:44.554Z,12.15
2023-03-03T21:57:11.782Z,12.15
2023-03-03T21:59:39.286Z,16.92
2023-03-03T22:02:15.560Z,6.72
2023-03-03T22:04:42.441Z,9.60
2023-03-03T22:07:09.901Z,7.53
2023-03-03T22:09:38.034Z,3.08
2023-03-03T22:12:06.287Z,3.03
2023-03-03T22:14:35.004Z,8.50
2023-03-03T22:17:03.282Z,19.50
2023-03-03T22:19:31.102Z,11.00
2023-03-03T22:21:58.653Z,7.63
2023-03-03T22:24:35.237Z,26.67
2023-03-03T22:27:03.778Z,9.35
2023-03-03T22:29:45.715Z,8.10
2023-03-03T22:32:12.805Z,12.10
2023-03-03T22:34:39.858Z,6.70
2023-03-03T22:37:06.684Z,11.48
2023-03-03T22:39:33.565Z,15.73
2023-03-03T22:42:00.490Z,1.48
2023-03-03T22:44:27.397Z,6.82
2023-03-03T22:46:54.279Z,10.25
2023-03-03T22:49:21.102Z,4.97
2023-03-03T22:51:48.071Z,13.75
2023-03-03T22:54:14.886Z,4.78
2023-03-03T22:56:41.845Z,8.38
2023-03-03T22:59:08.847Z,10.45
2023-03-03T23:01:35.685Z,8.48
2023-03-03T23:04:02.669Z,8.80
2023-03-03T23:06:29.494Z,6.32
2023-03-03T23:08:56.487Z,9.73
2023-03-03T23:11:24.773Z,5.95
2023-03-03T23:13:51.578Z,12.20
2023-03-03T23:16:18.503Z,20.20
2023-03-03T23:18:45.894Z,22.52
2023-03-03T23:21:14.154Z,8.20
2023-03-03T23:23:41.093Z,8.98
2023-03-03T23:26:08.040Z,12.45
2023-03-03T23:28:35.501Z,11.32
2023-03-03T23:31:02.397Z,19.52
2023-03-03T23:33:29.263Z,6.32
2023-03-03T23:35:56.129Z,4.28
2023-03-03T23:38:23.091Z,5.00
2023-03-03T23:40:49.988Z,9.45
2023-03-03T23:43:16.883Z,14.93
2023-03-03T23:45:43.806Z,4.88
2023-03-03T23:48:10.858Z,6.68
2023-03-03T23:50:38.176Z,6.68
2023-03-03T23:53:05.981Z,12.32
2023-03-03T23:55:32.927Z,8.85
2023-03-03T23:57:59.853Z,6.35
